Time;durP1;ratioP1;P1;durP2;ratioP2;P2;SDS_P1;SDS_P2;PMS_P1;PMS_P2;Temp;Humidity;BMP_temperature;BMP_pressure;BME280_temperature;BME280_humidity;BME280_pressure;Samples;Min_cycle;Max_cycle;Signal;HPM_P1;HPM_P2
2023/04/08 00:01:39;;;;;;;2.00;1.50;;;7.00;99.90;;;;;;5019309;28;20459;-80
2023/04/08 00:04:08;;;;;;;3.08;1.45;;;6.90;99.90;;;;;;5007813;28;20084;-80
2023/04/08 00:06:36;;;;;;;1.70;1.10;;;6.90;99.90;;;;;;5012552;28;20071;-80
2023/04/08 00:09:02;;;;;;;3.03;1.70;;;6.90;99.90;;;;;;5010762;28;20038;-79
2023/04/08 00:11:29;;;;;;;2.20;1.55;;;6.80;99.90;;;;;;5008606;28;20517;-78
2023/04/08 00:13:56;;;;;;;1.50;1.40;;;6.80;99.90;;;;;;5007343;28;20044;-79
2023/04/08 00:16:23;;;;;;;2.25;1.80;;;6.70;99.90;;;;;;5002569;28;20560;-80
2023/04/08 00:18:50;;;;;;;3.25;1.60;;;6.70;99.90;;;;;;5008642;28;20128;-78
2023/04/08 00:21:19;;;;;;;1.95;1.55;;;6.70;99.90;;;;;;5007492;28;20046;-78
2023/04/08 00:23:46;;;;;;;2.15;1.73;;;6.60;99.90;;;;;;5014193;28;20566;-79
2023/04/08 00:26:13;;;;;;;4.68;1.73;;;6.60;99.90;;;;;;5010186;28;20136;-79
2023/04/08 00:28:40;;;;;;;2.85;1.95;;;6.60;99.90;;;;;;5010303;28;20048;-79
2023/04/08 00:31:06;;;;;;;3.35;1.85;;;6.50;99.90;;;;;;5007123;28;20140;-79
2023/04/08 00:33:33;;;;;;;2.67;1.80;;;6.50;99.90;;;;;;5007201;28;20132;-81
2023/04/08 00:36:00;;;;;;;2.70;2.00;;;6.50;99.90;;;;;;5006295;28;20038;-78
2023/04/08 00:38:27;;;;;;;3.63;1.60;;;6.50;99.90;;;;;;5005798;28;20054;-78
2023/04/08 00:40:54;;;;;;;2.20;1.55;;;6.40;99.90;;;;;;5007290;28;20048;-80
2023/04/08 00:43:20;;;;;;;3.13;2.03;;;6.40;99.90;;;;;;5009734;28;20145;-80
2023/04/08 00:45:47;;;;;;;1.90;1.70;;;6.40;99.90;;;;;;5001646;28;20046;-78
2023/04/08 00:48:14;;;;;;;1.88;1.48;;;6.30;99.90;;;;;;5017218;28;20418;-81
2023/04/08 00:50:42;;;;;;;2.40;1.92;;;6.30;99.90;;;;;;5012977;28;20050;-78
2023/04/08 00:53:09;;;;;;;2.50;1.83;;;6.30;99.90;;;;;;5010254;28;20133;-80
2023/04/08 00:55:35;;;;;;;2.03;1.60;;;6.20;99.90;;;;;;5009761;28;20042;-81
2023/04/08 00:58:02;;;;;;;3.40;1.95;;;6.20;99.90;;;;;;5009761;28;20076;-79
2023/04/08 01:00:30;;;;;;;4.30;1.80;;;6.20;99.90;;;;;;5005919;28;20505;-79
2023/04/08 01:03:04;;;;;;;2.85;1.92;;;6.10;99.90;;;;;;5000122;28;20054;-77
2023/04/08 01:05:43;;;;;;;5.00;2.30;;;6.10;99.90;;;;;;5010225;28;20073;-80
2023/04/08 01:08:11;;;;;;;2.47;1.80;;;6.10;99.90;;;;;;5001502;28;20578;-78
2023/04/08 01:10:41;;;;;;;1.60;1.38;;;6.10;99.90;;;;;;5005482;28;20141;-80
2023/04/08 01:13:10;;;;;;;2.72;1.70;;;6.10;99.90;;;;;;5009371;28;20618;-79
2023/04/08 01:15:40;;;;;;;3.95;1.98;;;6.10;99.90;;;;;;5015465;28;20063;-79
2023/04/08 01:18:11;;;;;;;5.57;2.07;;;6.00;99.90;;;;;;5008191;28;20118;-80
2023/04/08 01:20:40;;;;;;;1.48;1.38;;;6.00;99.90;;;;;;5009253;28;20486;-79
2023/04/08 01:23:27;;;;;;;2.15;1.75;;;6.00;99.90;;;;;;5010822;28;20111;-79
2023/04/08 01:25:55;;;;;;;2.95;1.92;;;6.00;99.90;;;;;;5011963;28;20056;-80
2023/04/08 01:28:25;;;;;;;2.03;1.83;;;5.90;99.90;;;;;;5010864;28;20054;-79
2023/04/08 01:30:55;;;;;;;2.30;1.92;;;5.90;99.90;;;;;;5015222;28;20084;-79
2023/04/08 01:33:23;;;;;;;1.85;1.60;;;5.90;99.90;;;;;;5008514;28;20057;-80
2023/04/08 01:35:51;;;;;;;2.42;1.42;;;5.90;99.90;;;;;;5018540;28;20478;-79
2023/04/08 01:38:21;;;;;;;2.53;1.90;;;5.80;99.90;;;;;;5015860;28;20046;-79
2023/04/08 01:40:48;;;;;;;;;;;5.80;99.90;;;;;;5021860;28;20080;-78
2023/04/08 01:43:16;;;;;;;2.65;1.95;;;5.80;99.90;;;;;;5012160;28;19921;-78
2023/04/08 01:45:45;;;;;;;1.77;1.58;;;5.70;99.90;;;;;;5015545;28;20133;-79
2023/04/08 01:48:13;;;;;;;2.22;1.50;;;5.70;99.90;;;;;;5016851;28;20053;-78
2023/04/08 01:50:44;;;;;;;1.90;1.70;;;5.70;99.90;;;;;;5008317;28;20088;-79
2023/04/08 01:53:11;;;;;;;2.38;1.60;;;5.70;99.90;;;;;;5012966;28;20153;-79
2023/04/08 01:55:40;;;;;;;2.15;1.70;;;5.60;99.90;;;;;;5009882;28;20046;-77
2023/04/08 01:58:10;;;;;;;3.30;1.90;;;5.60;99.90;;;;;;5011237;28;20054;-78
2023/04/08 02:00:39;;;;;;;2.05;1.80;;;5.60;99.90;;;;;;5021801;28;20096;-78
2023/04/08 02:03:09;;;;;;;1.85;1.67;;;5.60;99.90;;;;;;5013229;28;20046;-79
2023/04/08 02:05:36;;;;;;;1.75;1.58;;;5.60;99.90;;;;;;5017555;28;20076;-77
2023/04/08 02:08:02;;;;;;;2.80;1.75;;;5.60;99.90;;;;;;5015500;28;20569;-79
2023/04/08 02:10:29;;;;;;;1.90;1.70;;;5.50;99.90;;;;;;5020743;28;20046;-78
2023/04/08 02:12:56;;;;;;;2.13;1.73;;;5.60;99.90;;;;;;5010597;28;20121;-78
2023/04/08 02:15:26;;;;;;;2.83;1.92;;;5.50;99.90;;;;;;5015984;28;20050;-78
2023/04/08 02:18:06;;;;;;;2.92;1.80;;;5.50;99.90;;;;;;5017380;28;20073;-79
2023/04/08 02:20:36;;;;;;;;;;;5.40;99.90;;;;;;5013909;28;20463;-79
2023/04/08 02:23:09;;;;;;;2.72;1.77;;;5.40;99.90;;;;;;5009514;28;19921;-79
2023/04/08 02:25:38;;;;;;;2.78;1.92;;;5.40;99.90;;;;;;5015195;28;20053;-78
2023/04/08 02:28:08;;;;;;;2.38;2.00;;;5.40;99.90;;;;;;5012371;28;20054;-80
2023/04/08 02:30:39;;;;;;;2.08;1.67;;;5.40;99.90;;;;;;5013227;28;20185;-78
2023/04/08 02:33:08;;;;;;;2.50;1.90;;;5.40;99.90;;;;;;5020138;28;20049;-77
2023/04/08 02:35:35;;;;;;;1.92;1.60;;;5.30;99.90;;;;;;5014683;28;20050;-79
2023/04/08 02:38:02;;;;;;;2.15;1.80;;;5.30;99.90;;;;;;5014728;28;20048;-78
2023/04/08 02:40:34;;;;;;;2.03;1.70;;;5.30;99.90;;;;;;5017007;28;20049;-80
2023/04/08 02:43:00;;;;;;;2.75;2.22;;;5.30;99.90;;;;;;5006868;28;20082;-78
2023/04/08 02:45:31;;;;;;;2.67;2.05;;;5.30;99.90;;;;;;5014102;28;20049;-79
2023/04/08 02:47:59;;;;;;;2.97;2.30;;;5.40;99.90;;;;;;5011779;28;20050;-79
2023/04/08 02:50:26;;;;;;;5.88;3.03;;;5.40;99.90;;;;;;5012885;28;20473;-78
2023/04/08 02:52:52;;;;;;;4.20;2.40;;;5.40;99.90;;;;;;5015034;28;20133;-79
2023/04/08 02:55:19;;;;;;;3.00;2.58;;;5.50;99.90;;;;;;5010828;28;20493;-79
2023/04/08 02:57:47;;;;;;;3.80;1.67;;;5.50;99.90;;;;;;5014806;28;20081;-79
2023/04/08 03:00:14;;;;;;;5.25;2.33;;;5.60;99.90;;;;;;5023039;28;20046;-79
2023/04/08 03:02:41;;;;;;;2.35;1.77;;;5.60;99.90;;;;;;5015859;28;20115;-79
2023/04/08 03:05:08;;;;;;;1.98;1.77;;;5.70;99.90;;;;;;5008844;28;20054;-78
2023/04/08 03:07:35;;;;;;;2.55;2.25;;;5.70;99.90;;;;;;5021105;28;20172;-79
2023/04/08 03:10:03;;;;;;;2.47;2.03;;;5.70;99.90;;;;;;5014337;28;20490;-78
2023/04/08 03:12:30;;;;;;;3.35;2.10;;;5.80;99.90;;;;;;5006993;28;20125;-79
2023/04/08 03:14:56;;;;;;;2.20;2.00;;;5.80;99.90;;;;;;5009017;28;20045;-78
2023/04/08 03:17:23;;;;;;;4.20;2.08;;;5.90;99.90;;;;;;5012840;28;20105;-79
2023/04/08 03:19:50;;;;;;;2.58;2.22;;;5.90;99.90;;;;;;5025144;28;20041;-78
2023/04/08 03:22:17;;;;;;;2.70;2.40;;;5.90;99.90;;;;;;5009533;28;20147;-77
2023/04/08 03:24:44;;;;;;;2.70;2.20;;;5.90;99.90;;;;;;5013889;28;20125;-79
2023/04/08 03:27:11;;;;;;;4.90;2.47;;;6.00;99.90;;;;;;5011025;28;20052;-78
2023/04/08 03:29:38;;;;;;;3.28;2.30;;;6.00;99.90;;;;;;5024164;28;20433;-79
2023/04/08 03:32:05;;;;;;;3.50;2.45;;;6.00;99.90;;;;;;5016510;28;20050;-80
2023/04/08 03:34:33;;;;;;;3.53;2.03;;;6.00;99.90;;;;;;5011982;28;20612;-80
2023/04/08 03:37:00;;;;;;;2.67;2.00;;;6.00;99.90;;;;;;5019959;28;20101;-79
2023/04/08 03:39:27;;;;;;;3.05;2.45;;;6.00;99.90;;;;;;5008243;28;20125;-79
2023/04/08 03:41:54;;;;;;;2.70;2.40;;;6.10;99.90;;;;;;5019125;28;20053;-79
2023/04/08 03:44:20;;;;;;;2.33;2.00;;;6.10;99.90;;;;;;5010247;28;20082;-79
2023/04/08 03:46:47;;;;;;;2.65;2.17;;;6.10;99.90;;;;;;5015982;28;20124;-79
2023/04/08 03:49:14;;;;;;;3.80;2.05;;;6.20;99.90;;;;;;5011570;28;20057;-78
2023/04/08 03:51:41;;;;;;;2.17;1.85;;;6.20;99.90;;;;;;5008138;28;20136;-80
2023/04/08 03:54:07;;;;;;;2.17;1.90;;;6.20;99.90;;;;;;5012021;28;20042;-79
2023/04/08 03:56:34;;;;;;;2.22;2.00;;;6.20;99.90;;;;;;5009213;28;20043;-78
2023/04/08 03:59:01;;;;;;;4.38;2.08;;;6.30;99.90;;;;;;5008093;28;20045;-79
2023/04/08 04:01:29;;;;;;;2.40;2.00;;;6.30;99.90;;;;;;5006602;28;20542;-79
2023/04/08 04:03:55;;;;;;;3.40;2.40;;;6.30;99.90;;;;;;5013033;28;20073;-78
2023/04/08 04:06:22;;;;;;;2.00;1.80;;;6.30;99.90;;;;;;5018967;28;20054;-78
2023/04/08 04:08:51;;;;;;;3.35;2.33;;;6.30;99.90;;;;;;5011092;28;20053;-80
2023/04/08 04:11:18;;;;;;;5.18;3.20;;;6.30;99.90;;;;;;5015466;28;20136;-81
2023/04/08 04:13:45;;;;;;;6.20;3.58;;;6.40;99.90;;;;;;5022580;28;20046;-79
2023/04/08 04:16:12;;;;;;;5.10;3.67;;;6.40;99.90;;;;;;5020022;28;20049;-80
2023/04/08 04:18:38;;;;;;;5.55;3.42;;;6.40;99.90;;;;;;5015205;28;20056;-79
2023/04/08 04:21:08;;;;;;;4.30;3.30;;;6.40;99.90;;;;;;5002520;28;20101;-78
2023/04/08 04:23:35;;;;;;;4.97;3.15;;;6.40;99.90;;;;;;5009485;28;20057;-79
2023/04/08 04:26:07;;;;;;;5.30;3.67;;;6.40;99.90;;;;;;5002877;28;20047;-79
2023/04/08 04:28:34;;;;;;;4.05;3.28;;;6.40;99.90;;;;;;5014331;28;20054;-80
2023/04/08 04:31:01;;;;;;;3.38;3.08;;;6.40;99.90;;;;;;5011799;28;20045;-80
2023/04/08 04:33:28;;;;;;;2.97;2.63;;;6.40;99.90;;;;;;5011435;28;20046;-80
2023/04/08 04:35:55;;;;;;;5.75;2.70;;;6.40;99.90;;;;;;5009336;28;20537;-80
2023/04/08 04:38:21;;;;;;;4.25;3.45;;;6.40;99.90;;;;;;5005595;28;20076;-80
2023/04/08 04:40:48;;;;;;;4.28;3.17;;;6.40;99.90;;;;;;5003593;28;20065;-79
2023/04/08 04:43:15;;;;;;;5.40;3.03;;;6.40;99.90;;;;;;5002147;28;20056;-81
2023/04/08 04:45:41;;;;;;;4.05;2.70;;;6.40;99.90;;;;;;5006058;28;20058;-81
2023/04/08 04:48:08;;;;;;;3.58;2.78;;;6.40;99.90;;;;;;5001271;28;20168;-79
2023/04/08 04:50:35;;;;;;;4.95;2.85;;;6.50;99.90;;;;;;5004615;28;20192;-81
2023/04/08 04:53:02;;;;;;;3.90;3.05;;;6.50;99.90;;;;;;5008735;28;20060;-80
2023/04/08 04:55:28;;;;;;;4.55;2.67;;;6.50;99.90;;;;;;5013418;28;20056;-78
2023/04/08 04:57:55;;;;;;;3.75;2.70;;;6.50;99.90;;;;;;5011551;28;20444;-79
2023/04/08 05:00:21;;;;;;;3.97;3.08;;;6.50;99.90;;;;;;5007162;28;20089;-80
2023/04/08 05:02:48;;;;;;;4.22;2.85;;;6.50;99.90;;;;;;5011562;28;20081;-80
2023/04/08 05:05:15;;;;;;;4.70;2.70;;;6.50;99.90;;;;;;5003282;28;20645;-79
2023/04/08 05:07:42;;;;;;;5.13;3.40;;;6.50;99.90;;;;;;5006038;28;20429;-80
2023/04/08 05:10:09;;;;;;;2.97;2.38;;;6.50;99.90;;;;;;5004902;28;20137;-79
2023/04/08 05:12:37;;;;;;;4.10;2.88;;;6.50;99.90;;;;;;5006244;28;20050;-81
2023/04/08 05:15:05;;;;;;;4.45;3.25;;;6.50;99.90;;;;;;5004103;28;20129;-80
2023/04/08 05:17:32;;;;;;;4.35;2.90;;;6.50;99.90;;;;;;5000608;28;20469;-81
2023/04/08 05:19:59;;;;;;;4.60;2.88;;;6.50;99.90;;;;;;5014143;28;20113;-80
2023/04/08 05:22:26;;;;;;;4.55;2.80;;;6.50;99.90;;;;;;5008821;28;20608;-79
2023/04/08 05:24:52;;;;;;;3.63;2.95;;;6.60;99.90;;;;;;5012361;28;20081;-80
2023/04/08 05:27:20;;;;;;;3.58;2.83;;;6.60;99.90;;;;;;5005668;28;20064;-82
2023/04/08 05:29:47;;;;;;;3.83;2.97;;;6.60;99.90;;;;;;5005891;28;20049;-81
2023/04/08 05:32:15;;;;;;;5.10;2.70;;;6.60;99.90;;;;;;5008666;28;20085;-81
2023/04/08 05:34:43;;;;;;;2.72;2.35;;;6.70;99.90;;;;;;5002678;28;20046;-80
2023/04/08 05:37:10;;;;;;;4.28;2.42;;;6.70;99.90;;;;;;5002106;28;20536;-82
2023/04/08 05:39:36;;;;;;;5.20;2.25;;;6.70;99.90;;;;;;5005099;28;20057;-79
2023/04/08 05:42:03;;;;;;;4.05;2.80;;;6.70;99.90;;;;;;4999433;28;20050;-81
2023/04/08 05:44:30;;;;;;;3.10;2.80;;;6.70;99.90;;;;;;5011588;28;20050;-80
2023/04/08 05:46:57;;;;;;;4.65;2.72;;;6.80;99.90;;;;;;5010524;28;20520;-80
2023/04/08 05:49:23;;;;;;;4.43;2.65;;;6.80;99.90;;;;;;5007333;28;20046;-81
2023/04/08 05:51:50;;;;;;;3.17;2.60;;;6.80;99.90;;;;;;5008189;28;20050;-81
2023/04/08 05:54:17;;;;;;;3.05;2.63;;;6.80;99.90;;;;;;5005843;28;20145;-80
2023/04/08 05:56:45;;;;;;;5.70;3.00;;;6.90;99.90;;;;;;5006888;28;20050;-80
2023/04/08 05:59:12;;;;;;;5.63;3.00;;;6.90;99.90;;;;;;5000241;28;20073;-81
2023/04/08 06:01:38;;;;;;;4.82;2.80;;;6.90;99.90;;;;;;5008491;28;20051;-80
2023/04/08 06:04:05;;;;;;;5.05;3.38;;;7.00;99.90;;;;;;4999686;28;20105;-80
2023/04/08 06:06:32;;;;;;;3.95;2.95;;;7.00;99.90;;;;;;5003239;28;20449;-78
2023/04/08 06:08:59;;;;;;;6.03;3.53;;;7.00;99.90;;;;;;5016989;28;20052;-78
2023/04/08 06:11:26;;;;;;;6.43;2.92;;;7.00;99.90;;;;;;5009890;28;20058;-81
2023/04/08 06:13:52;;;;;;;5.55;3.10;;;7.00;99.90;;;;;;5004555;28;20101;-82
2023/04/08 06:16:19;;;;;;;5.93;3.67;;;7.00;99.90;;;;;;5005024;28;20525;-80
2023/04/08 06:18:47;;;;;;;4.50;3.55;;;7.00;99.90;;;;;;5005848;28;20047;-81
2023/04/08 06:21:14;;;;;;;5.90;3.95;;;7.00;99.90;;;;;;5001418;28;20050;-80
2023/04/08 06:23:40;;;;;;;5.40;4.10;;;7.10;99.90;;;;;;5011930;28;20061;-81
2023/04/08 06:26:07;;;;;;;7.13;4.68;;;7.20;99.90;;;;;;5006195;28;20064;-81
2023/04/08 06:28:34;;;;;;;9.10;5.20;;;7.20;99.90;;;;;;5001880;28;20137;-80
2023/04/08 06:31:01;;;;;;;9.23;6.13;;;7.30;99.90;;;;;;5009568;28;20046;-81
2023/04/08 06:33:27;;;;;;;8.15;4.20;;;7.40;99.90;;;;;;5013740;28;20056;-80
2023/04/08 06:36:01;;;;;;;5.40;3.92;;;7.50;99.90;;;;;;5009467;28;20072;-80
2023/04/08 06:38:28;;;;;;;12.00;4.57;;;7.50;99.90;;;;;;5009980;28;20073;-80
2023/04/08 06:40:55;;;;;;;8.32;6.45;;;7.60;99.90;;;;;;5013436;28;20037;-80
2023/04/08 06:43:22;;;;;;;7.82;5.88;;;7.80;99.90;;;;;;5001557;28;20042;-82
2023/04/08 06:45:49;;;;;;;9.02;7.07;;;7.80;99.90;;;;;;5007871;28;20104;-80
2023/04/08 06:48:15;;;;;;;9.73;8.05;;;7.80;99.90;;;;;;5009029;28;20141;-81
2023/04/08 06:50:42;;;;;;;14.27;9.32;;;7.80;99.90;;;;;;5000408;28;20587;-80
2023/04/08 06:53:09;;;;;;;10.05;8.65;;;7.80;99.90;;;;;;5008043;28;20153;-80
2023/04/08 06:55:36;;;;;;;12.48;9.10;;;7.80;99.90;;;;;;5005057;28;20057;-80
2023/04/08 06:58:02;;;;;;;12.05;9.27;;;7.80;99.90;;;;;;5008411;28;20073;-80
2023/04/08 07:00:29;;;;;;;13.23;9.35;;;7.70;99.90;;;;;;5003322;28;20171;-79
2023/04/08 07:02:56;;;;;;;10.93;9.13;;;7.80;99.90;;;;;;5008290;28;20041;-81
2023/04/08 07:05:23;;;;;;;9.90;8.35;;;7.70;99.90;;;;;;5011279;28;20458;-79
2023/04/08 07:07:49;;;;;;;9.65;8.20;;;7.80;99.90;;;;;;5007921;28;20574;-80
2023/04/08 07:10:16;;;;;;;9.77;8.02;;;7.80;99.90;;;;;;5010212;28;20058;-79
2023/04/08 07:12:43;;;;;;;10.05;8.10;;;7.80;99.90;;;;;;5006472;28;20074;-80
2023/04/08 07:15:10;;;;;;;10.55;7.45;;;7.90;99.90;;;;;;5005710;28;20141;-80
2023/04/08 07:17:36;;;;;;;10.30;8.60;;;7.90;99.90;;;;;;5010112;28;20050;-80
2023/04/08 07:20:04;;;;;;;8.70;7.20;;;8.00;99.90;;;;;;5000645;28;20054;-81
2023/04/08 07:22:31;;;;;;;11.77;7.13;;;8.00;99.90;;;;;;5013011;28;20046;-81
2023/04/08 07:24:57;;;;;;;9.80;7.45;;;8.10;99.90;;;;;;5015023;28;20053;-79
2023/04/08 07:27:24;;;;;;;9.93;7.28;;;8.10;99.90;;;;;;5012185;28;20061;-80
2023/04/08 07:29:54;;;;;;;9.57;7.97;;;8.20;99.90;;;;;;5011191;28;20078;-80
2023/04/08 07:32:20;;;;;;;9.57;7.72;;;8.20;99.90;;;;;;5006997;28;20080;-79
2023/04/08 07:34:47;;;;;;;8.57;6.70;;;8.30;99.90;;;;;;5010390;28;20061;-79
2023/04/08 07:37:14;;;;;;;8.27;6.55;;;8.30;99.90;;;;;;5002698;28;20053;-79
2023/04/08 07:39:41;;;;;;;9.43;6.65;;;8.30;99.90;;;;;;5011515;28;20428;-80
2023/04/08 07:42:07;;;;;;;8.88;6.43;;;8.30;99.90;;;;;;5003442;28;20050;-79
2023/04/08 07:44:34;;;;;;;9.23;7.38;;;8.40;99.90;;;;;;4999679;28;20050;-79
2023/04/08 07:47:01;;;;;;;9.13;7.45;;;8.50;99.90;;;;;;5001484;28;20063;-80
2023/04/08 07:49:29;;;;;;;7.28;6.32;;;8.60;99.90;;;;;;5004856;28;20052;-80
2023/04/08 07:51:56;;;;;;;11.93;7.40;;;8.70;99.90;;;;;;5000098;28;20085;-80
2023/04/08 07:54:23;;;;;;;9.27;7.25;;;8.70;99.90;;;;;;5005397;28;20418;-80
2023/04/08 07:56:49;;;;;;;8.20;6.80;;;8.80;99.90;;;;;;5012280;28;20053;-80
2023/04/08 07:59:16;;;;;;;8.50;7.18;;;8.80;99.90;;;;;;5003369;28;20046;-80
2023/04/08 08:01:43;;;;;;;9.35;7.20;;;8.90;99.90;;;;;;5004955;28;20125;-80
2023/04/08 08:04:09;;;;;;;9.93;7.07;;;9.10;99.90;;;;;;5004149;28;20073;-81
2023/04/08 08:06:36;;;;;;;8.52;6.45;;;9.10;99.90;;;;;;5000896;28;20133;-80
2023/04/08 08:09:04;;;;;;;9.38;7.03;;;9.10;99.90;;;;;;5006338;28;20057;-81
2023/04/08 08:11:31;;;;;;;6.70;6.00;;;9.20;99.90;;;;;;5005840;28;20524;-79
2023/04/08 08:13:58;;;;;;;7.78;6.07;;;9.30;99.90;;;;;;5005282;28;20046;-79
2023/04/08 08:16:28;;;;;;;6.75;5.75;;;9.40;99.90;;;;;;5004563;28;20047;-79
2023/04/08 08:18:55;;;;;;;;;;;9.50;99.90;;;;;;5004924;28;20513;-80
2023/04/08 08:21:22;;;;;;;7.28;6.15;;;9.60;99.90;;;;;;5002167;28;20385;-80
2023/04/08 08:23:50;;;;;;;7.65;6.13;;;9.60;99.90;;;;;;5003965;28;20073;-80
2023/04/08 08:26:17;;;;;;;8.73;5.65;;;9.70;99.90;;;;;;5002095;28;20541;-81
2023/04/08 08:28:44;;;;;;;8.73;6.38;;;9.80;99.90;;;;;;5001200;28;20133;-81
2023/04/08 08:31:11;;;;;;;7.00;5.22;;;9.90;99.90;;;;;;5001411;28;20058;-79
2023/04/08 08:33:38;;;;;;;6.53;5.63;;;9.90;99.90;;;;;;5002622;28;20077;-81
2023/04/08 08:36:05;;;;;;;6.88;6.18;;;9.90;99.90;;;;;;5001867;28;20136;-82
2023/04/08 08:38:32;;;;;;;7.75;6.53;;;9.90;99.90;;;;;;5003345;28;20462;-82
2023/04/08 08:41:00;;;;;;;7.07;6.13;;;10.00;99.90;;;;;;4999276;28;20157;-81
2023/04/08 08:43:28;;;;;;;7.25;6.05;;;10.10;99.90;;;;;;5010156;28;20422;-81
2023/04/08 08:45:55;;;;;;;6.15;4.93;;;10.20;99.90;;;;;;5003363;28;20176;-81
2023/04/08 08:48:21;;;;;;;7.07;5.38;;;10.20;99.90;;;;;;5007978;28;20112;-80
2023/04/08 08:50:48;;;;;;;6.80;4.82;;;10.30;99.90;;;;;;5006777;28;20050;-82
2023/04/08 08:53:15;;;;;;;6.22;4.57;;;10.40;99.90;;;;;;5001647;28;20050;-80
2023/04/08 08:55:42;;;;;;;6.35;5.40;;;10.50;99.90;;;;;;4999836;28;20077;-82
2023/04/08 08:58:12;;;;;;;6.68;5.28;;;10.50;99.90;;;;;;5003122;28;20057;-81
2023/04/08 09:00:41;;;;;;;8.23;5.13;;;10.50;99.90;;;;;;5005781;28;20042;-80
2023/04/08 09:03:28;;;;;;;6.75;5.57;;;10.60;99.90;;;;;;4996223;28;20077;-79
2023/04/08 09:05:57;;;;;;;7.35;6.05;;;10.60;99.90;;;;;;4997562;28;20046;-81
2023/04/08 09:08:34;;;;;;;8.88;6.20;;;10.60;99.90;;;;;;4998671;28;20053;-81
2023/04/08 09:11:15;;;;;;;6.88;5.70;;;10.70;99.90;;;;;;4999851;28;20073;-82
2023/04/08 09:13:43;;;;;;;8.02;6.82;;;10.80;99.90;;;;;;5001085;28;20081;-81
2023/04/08 09:16:17;;;;;;;9.35;6.70;;;10.70;99.90;;;;;;5002370;28;20054;-82
2023/04/08 09:18:46;;;;;;;9.77;6.90;;;10.60;99.90;;;;;;4999869;28;20129;-81
2023/04/08 09:21:14;;;;;;;10.45;7.63;;;10.60;99.90;;;;;;4997395;28;20070;-81
2023/04/08 09:23:50;;;;;;;11.18;7.97;;;10.70;99.90;;;;;;4995654;28;20074;-81
2023/04/08 09:26:26;;;;;;;8.55;6.70;;;10.70;99.90;;;;;;4997138;28;20058;-81
2023/04/08 09:28:58;;;;;;;10.80;8.13;;;10.80;99.90;;;;;;5000897;28;20061;-82
2023/04/08 09:31:42;;;;;;;9.35;7.88;;;10.80;99.90;;;;;;5001559;28;20081;-81
2023/04/08 09:34:10;;;;;;;9.70;8.00;;;11.00;99.90;;;;;;5006398;28;20053;-81
2023/04/08 09:36:37;;;;;;;10.52;8.50;;;11.10;99.90;;;;;;5000581;28;20132;-81
2023/04/08 09:39:05;;;;;;;11.57;8.38;;;11.20;99.90;;;;;;5000262;28;20046;-81
2023/04/08 09:41:34;;;;;;;11.23;7.95;;;11.40;99.90;;;;;;5000703;28;20047;-82
2023/04/08 09:44:06;;;;;;;9.93;7.45;;;11.40;99.90;;;;;;5005136;28;20050;-80
2023/04/08 09:46:46;;;;;;;11.77;8.25;;;11.40;99.90;;;;;;5002352;28;20587;-79
2023/04/08 09:49:25;;;;;;;11.73;8.95;;;11.30;99.90;;;;;;5001734;28;20072;-82
2023/04/08 09:52:03;;;;;;;10.73;8.82;;;11.30;99.90;;;;;;5000815;28;20910;-82
2023/04/08 09:55:00;;;;;;;11.25;8.35;;;11.30;99.90;;;;;;5005893;28;20045;-81
2023/04/08 09:57:57;;;;;;;10.68;8.20;;;11.30;99.90;;;;;;5001865;28;20532;-82
2023/04/08 10:00:31;;;;;;;9.48;7.45;;;11.40;99.90;;;;;;5003868;28;20051;-80
2023/04/08 10:03:15;;;;;;;9.70;8.23;;;11.40;99.90;;;;;;5004376;28;20576;-81
2023/04/08 10:05:45;;;;;;;10.80;8.50;;;11.50;99.90;;;;;;5005222;28;20054;-82
2023/04/08 10:08:12;;;;;;;10.57;8.35;;;11.50;99.90;;;;;;5012189;28;20065;-81
2023/04/08 10:10:40;;;;;;;10.10;8.43;;;11.60;99.90;;;;;;5004694;28;20537;-81
2023/04/08 10:13:07;;;;;;;8.70;7.38;;;11.70;99.90;;;;;;4997314;28;20058;-80
2023/04/08 10:15:37;;;;;;;8.82;7.22;;;11.70;99.90;;;;;;5002292;28;20505;-81
2023/04/08 10:18:04;;;;;;;8.85;7.78;;;11.70;99.90;;;;;;5002594;28;20058;-81
2023/04/08 10:20:34;;;;;;;9.38;7.97;;;11.90;99.90;;;;;;5005921;28;20133;-81
2023/04/08 10:23:01;;;;;;;;;;;12.00;99.90;;;;;;5008809;28;20092;-80
2023/04/08 10:25:30;;;;;;;9.98;8.95;;;12.10;99.90;;;;;;5008946;28;19961;-82
2023/04/08 10:27:57;;;;;;;11.40;8.48;;;12.30;99.90;;;;;;5014125;28;20506;-81
2023/04/08 10:30:27;;;;;;;11.65;8.80;;;12.30;99.90;;;;;;5000982;28;20396;-81
2023/04/08 10:33:03;;;;;;;11.53;8.97;;;12.50;99.90;;;;;;5004441;28;20085;-81
2023/04/08 10:35:40;;;;;;;10.60;9.18;;;12.50;99.90;;;;;;5006137;28;20076;-80
2023/04/08 10:38:08;;;;;;;13.05;8.73;;;12.50;99.90;;;;;;5018479;28;20413;-82
2023/04/08 10:40:40;;;;;;;8.20;6.63;;;12.50;99.90;;;;;;5006394;28;20134;-81
2023/04/08 10:43:07;;;;;;;8.40;6.80;;;12.30;99.90;;;;;;5009696;28;20050;-80
2023/04/08 10:45:34;;;;;;;8.38;5.25;;;12.30;99.90;;;;;;5012405;28;20061;-80
2023/04/08 10:48:31;;;;;;;6.85;4.95;;;12.40;99.90;;;;;;5009111;28;20053;-82
2023/04/08 10:51:01;;;;;;;7.35;5.20;;;12.40;99.90;;;;;;5012078;28;20521;-80
2023/04/08 10:53:31;;;;;;;6.78;5.22;;;12.50;99.90;;;;;;5004198;28;20136;-80
2023/04/08 10:56:12;;;;;;;8.05;6.35;;;12.50;99.90;;;;;;5011211;28;20120;-81
2023/04/08 10:58:50;;;;;;;12.20;8.52;;;12.60;99.90;;;;;;5013667;28;20053;-80
2023/04/08 11:01:18;;;;;;;10.70;8.07;;;12.60;99.90;;;;;;5002556;28;20094;-80
2023/04/08 11:03:45;;;;;;;9.23;7.93;;;12.60;99.90;;;;;;5016051;28;20519;-82
2023/04/08 11:06:12;;;;;;;12.55;8.57;;;12.60;99.90;;;;;;5013801;28;20054;-81
2023/04/08 11:08:39;;;;;;;10.07;8.10;;;12.60;99.90;;;;;;5012079;28;20133;-79
2023/04/08 11:11:09;;;;;;;11.70;9.13;;;12.60;99.90;;;;;;5009392;28;20136;-81
2023/04/08 11:13:39;;;;;;;11.13;8.57;;;12.60;99.90;;;;;;5009602;28;20060;-81
2023/04/08 11:16:12;;;;;;;10.23;7.97;;;12.60;99.90;;;;;;5004352;28;20050;-80
2023/04/08 11:18:44;;;;;;;12.90;9.27;;;12.40;99.90;;;;;;5004544;28;20047;-80
2023/04/08 11:21:11;;;;;;;13.73;8.48;;;12.30;99.90;;;;;;5015083;28;20057;-80
2023/04/08 11:23:38;;;;;;;9.95;8.07;;;12.40;99.90;;;;;;4999340;28;20047;-79
2023/04/08 11:26:05;;;;;;;10.82;8.13;;;12.40;99.90;;;;;;5011076;28;20164;-80
2023/04/08 11:28:34;;;;;;;10.70;7.97;;;12.50;99.90;;;;;;5012701;28;20153;-80
2023/04/08 11:31:04;;;;;;;13.85;9.07;;;12.50;99.90;;;;;;5007247;28;20113;-81
2023/04/08 11:33:31;;;;;;;12.75;9.15;;;12.60;99.90;;;;;;5004841;28;20073;-81
2023/04/08 11:36:01;;;;;;;11.82;8.85;;;12.60;99.90;;;;;;5011575;28;20053;-80
2023/04/08 11:38:28;;;;;;;15.20;9.10;;;12.50;99.90;;;;;;5005152;28;20042;-83
2023/04/08 11:40:59;;;;;;;11.60;9.15;;;12.60;99.90;;;;;;5002823;28;20038;-80
2023/04/08 11:43:27;;;;;;;13.80;9.77;;;12.60;99.90;;;;;;5003536;28;20042;-81
2023/04/08 11:45:54;;;;;;;13.02;9.07;;;12.50;99.90;;;;;;4999773;28;20133;-80
2023/04/08 11:48:21;;;;;;;10.85;8.23;;;12.70;99.90;;;;;;4998488;28;20553;-80
2023/04/08 11:51:00;;;;;;;11.13;8.40;;;12.70;99.90;;;;;;4999450;28;20442;-81
2023/04/08 11:53:27;;;;;;;13.73;9.10;;;12.80;99.90;;;;;;5012129;28;20072;-80
2023/04/08 11:55:54;;;;;;;8.57;7.05;;;12.80;99.90;;;;;;5011937;28;20052;-81
2023/04/08 11:58:21;;;;;;;10.73;7.95;;;12.80;99.90;;;;;;5005816;28;20129;-82
2023/04/08 12:00:49;;;;;;;9.98;7.90;;;12.70;99.90;;;;;;5009952;28;20039;-81
2023/04/08 12:03:16;;;;;;;8.25;6.95;;;12.70;99.90;;;;;;5006474;28;20068;-81
2023/04/08 12:05:43;;;;;;;9.85;7.60;;;12.70;99.90;;;;;;5008193;28;20077;-82
2023/04/08 12:08:10;;;;;;;10.18;7.70;;;12.70;99.90;;;;;;5003481;28;20045;-81
2023/04/08 12:10:37;;;;;;;12.05;8.48;;;12.60;99.90;;;;;;4999629;28;20061;-81
2023/04/08 12:13:03;;;;;;;13.27;9.45;;;12.60;99.90;;;;;;5008966;28;20072;-79
2023/04/08 12:15:31;;;;;;;13.00;10.02;;;12.60;99.90;;;;;;4999140;28;20490;-80
2023/04/08 12:17:58;;;;;;;11.95;8.68;;;12.60;99.90;;;;;;5014715;28;20100;-81
2023/04/08 12:20:25;;;;;;;12.82;9.85;;;12.70;99.90;;;;;;5010174;28;20049;-82
2023/04/08 12:22:51;;;;;;;12.95;10.40;;;12.70;99.90;;;;;;5012935;28;20417;-82
2023/04/08 12:25:18;;;;;;;13.93;9.55;;;12.70;99.90;;;;;;5017140;28;20080;-80
2023/04/08 12:27:45;;;;;;;14.23;8.98;;;12.60;99.90;;;;;;5005462;28;20081;-80
2023/04/08 12:30:12;;;;;;;12.65;10.23;;;12.50;99.90;;;;;;5006370;28;20052;-80
2023/04/08 12:32:41;;;;;;;12.75;8.95;;;12.50;99.90;;;;;;5000229;28;20056;-80
2023/04/08 12:35:08;;;;;;;16.40;10.00;;;12.50;99.90;;;;;;5007040;28;20568;-82
2023/04/08 12:37:35;;;;;;;12.13;9.20;;;12.40;99.90;;;;;;5002730;28;20049;-80
2023/04/08 12:40:02;;;;;;;16.05;11.50;;;12.40;99.90;;;;;;4999257;28;20444;-81
2023/04/08 12:42:28;;;;;;;14.82;11.13;;;12.30;99.90;;;;;;5011019;28;20133;-81
2023/04/08 12:44:55;;;;;;;13.65;10.77;;;12.30;99.90;;;;;;5013229;28;20121;-81
2023/04/08 12:47:22;;;;;;;13.75;9.68;;;12.30;99.90;;;;;;5011012;28;20042;-82
2023/04/08 12:49:51;;;;;;;13.57;10.25;;;12.50;99.90;;;;;;5007539;28;20108;-78
2023/04/08 12:52:18;;;;;;;13.80;8.75;;;12.60;99.90;;;;;;5010725;28;20052;-80
2023/04/08 12:54:45;;;;;;;10.63;7.95;;;12.70;99.90;;;;;;5003621;28;20046;-80
2023/04/08 12:57:11;;;;;;;10.07;8.18;;;12.80;99.90;;;;;;5006870;28;20042;-82
2023/04/08 12:59:38;;;;;;;9.65;7.53;;;12.90;99.90;;;;;;5005917;28;20038;-81